Stockdale, Pennsylvania
Current Conditions -  °F | °C
As of 6:53 PM on Tuesday 25 Nov 2014 (Local Time) from KAGC Reporting Station
Clear Clear  
Wind Chill: 32°   Ceiling: Unl
Heat Index: 38°   Visibility: 10mi
Dew Point: 24°   Wind: 8mph
Humidity: 57%   Direction: 330°NNW
Pressure: 30.12"   Gusts: NA
Location:  40.08°N, 79.85°W
Report Text: KAGC 252353Z 33007KT 10SM CLR 03/M04 A3012 RMK AO2 SLP215 T00331044 10094 20033 53031
Loading
Personal Weather Stations






























Interactive Weather Map New forecast layout! Learn more

10-Day Weather Forecast

Advertisements
Track Severe Weather on mobile